Time;durP1;ratioP1;P1;durP2;ratioP2;P2;SDS_P1;SDS_P2;PMS_P1;PMS_P2;Temp;Humidity;BMP_temperature;BMP_pressure;BME280_temperature;BME280_humidity;BME280_pressure;Samples;Min_cycle;Max_cycle;Signal;HPM_P1;HPM_P2
2021/05/30 00:01:47;;;;;;;67.95;46.88;;;;;;;;;;4216187;33;20054;-84
2021/05/30 00:04:19;;;;;;;66.25;46.83;;;;;;;;;;4213098;33;20762;-84
2021/05/30 00:06:49;;;;;;;57.53;42.40;;;;;;;;;;4215319;33;20125;-84
2021/05/30 00:09:21;;;;;;;62.20;42.45;;;;;;;;;;4217190;33;20102;-85
2021/05/30 00:11:52;;;;;;;65.65;45.42;;;;;;;;;;4221460;33;20054;-84
2021/05/30 00:14:23;;;;;;;65.28;47.58;;;;;;;;;;4208559;33;20136;-85
2021/05/30 00:16:54;;;;;;;64.28;47.75;;;;;;;;;;4210840;34;20082;-84
2021/05/30 00:19:25;;;;;;;75.18;48.17;;;;;;;;;;4220419;33;20102;-85
2021/05/30 00:21:59;;;;;;;73.47;46.83;;;;;;;;;;4225433;33;20092;-85
2021/05/30 00:24:30;;;;;;;70.95;49.95;;;;;;;;;;4220880;33;20070;-84
2021/05/30 00:27:01;;;;;;;70.95;50.58;;;;;;;;;;4226440;33;20098;-85
2021/05/30 00:29:32;;;;;;;71.93;49.33;;;;;;;;;;4214352;33;20174;-85
2021/05/30 00:32:03;;;;;;;68.05;46.60;;;;;;;;;;4214884;33;20086;-84
2021/05/30 00:34:34;;;;;;;71.18;50.88;;;;;;;;;;4204950;33;20133;-83
2021/05/30 00:37:05;;;;;;;65.50;42.10;;;;;;;;;;4211270;33;20176;-85
2021/05/30 00:39:36;;;;;;;58.42;40.38;;;;;;;;;;4207818;33;20102;-84
2021/05/30 00:42:07;;;;;;;60.83;39.97;;;;;;;;;;4204034;33;20125;-84
2021/05/30 00:44:38;;;;;;;64.05;39.22;;;;;;;;;;4204673;33;20757;-84
2021/05/30 00:47:10;;;;;;;57.92;39.03;;;;;;;;;;4210934;33;20153;-84
2021/05/30 00:49:41;;;;;;;67.72;48.78;;;;;;;;;;4219022;33;20525;-85
2021/05/30 00:52:11;;;;;;;70.60;49.70;;;;;;;;;;4220530;33;20085;-84
2021/05/30 00:54:42;;;;;;;68.28;48.87;;;;;;;;;;4226059;33;20471;-84
2021/05/30 00:57:13;;;;;;;62.90;43.38;;;;;;;;;;4226973;33;20089;-84
2021/05/30 00:59:44;;;;;;;63.87;43.70;;;;;;;;;;4219868;33;20115;-84
2021/05/30 01:02:15;;;;;;;70.45;47.25;;;;;;;;;;4217646;33;20152;-85
2021/05/30 01:04:48;;;;;;;64.28;46.70;;;;;;;;;;4212304;33;20382;-84
2021/05/30 01:07:18;;;;;;;65.65;43.95;;;;;;;;;;4219672;33;20070;-84
2021/05/30 01:09:51;;;;;;;63.87;45.60;;;;;;;;;;4218142;33;20553;-84
2021/05/30 01:12:22;;;;;;;61.55;47.03;;;;;;;;;;4226095;33;20115;-85
2021/05/30 01:14:53;;;;;;;55.03;41.08;;;;;;;;;;4214380;33;20094;-84
2021/05/30 01:17:23;;;;;;;58.45;41.72;;;;;;;;;;4219225;33;20122;-84
2021/05/30 01:19:56;;;;;;;56.58;39.22;;;;;;;;;;4220876;33;20154;-85
2021/05/30 01:22:27;;;;;;;64.95;42.90;;;;;;;;;;4213054;33;20527;-84
2021/05/30 01:24:58;;;;;;;66.93;44.30;;;;;;;;;;4201239;33;20877;-84
2021/05/30 01:27:29;;;;;;;51.58;40.20;;;;;;;;;;4212404;33;20039;-85
2021/05/30 01:30:00;;;;;;;62.92;47.38;;;;;;;;;;4217657;33;20044;-84
2021/05/30 01:32:32;;;;;;;69.05;46.78;;;;;;;;;;4210327;33;20568;-84
2021/05/30 01:35:04;;;;;;;66.57;47.92;;;;;;;;;;4211137;33;20058;-85
2021/05/30 01:37:35;;;;;;;58.47;42.13;;;;;;;;;;4224876;33;20054;-83
2021/05/30 01:40:07;;;;;;;62.00;43.53;;;;;;;;;;4220530;33;20054;-83
2021/05/30 01:42:38;;;;;;;57.75;42.28;;;;;;;;;;4215210;33;20120;-83
2021/05/30 01:45:09;;;;;;;55.05;42.55;;;;;;;;;;4216390;33;20118;-83
2021/05/30 01:47:41;;;;;;;47.67;39.92;;;;;;;;;;4223186;33;20055;-84
2021/05/30 01:50:15;;;;;;;48.35;37.22;;;;;;;;;;4221094;33;20094;-83
2021/05/30 01:52:47;;;;;;;52.15;36.70;;;;;;;;;;4218347;33;20085;-83
2021/05/30 01:55:24;;;;;;;52.33;41.30;;;;;;;;;;4229073;33;20084;-83
2021/05/30 01:57:56;;;;;;;54.63;41.03;;;;;;;;;;4224258;33;20152;-83
2021/05/30 02:00:27;;;;;;;50.58;34.70;;;;;;;;;;4224447;33;20161;-83
2021/05/30 02:02:58;;;;;;;48.08;33.17;;;;;;;;;;4219693;33;20051;-83
2021/05/30 02:05:30;;;;;;;49.75;33.47;;;;;;;;;;4235616;33;20133;-83
2021/05/30 02:08:01;;;;;;;64.30;42.97;;;;;;;;;;4227479;33;20073;-84
2021/05/30 02:10:31;;;;;;;69.12;39.15;;;;;;;;;;4219632;33;20114;-83
2021/05/30 02:13:04;;;;;;;59.08;39.58;;;;;;;;;;4222575;33;20217;-83
2021/05/30 02:15:35;;;;;;;54.58;37.10;;;;;;;;;;4228723;33;20389;-83
2021/05/30 02:18:07;;;;;;;53.80;35.78;;;;;;;;;;4224314;33;20132;-83
2021/05/30 02:20:39;;;;;;;52.33;34.00;;;;;;;;;;4214556;33;20110;-84
2021/05/30 02:23:12;;;;;;;50.25;34.45;;;;;;;;;;4221266;33;20100;-84
2021/05/30 02:25:42;;;;;;;;;;;;;;;;;;4235168;33;20862;-83
2021/05/30 02:28:13;;;;;;;51.63;33.55;;;;;;;;;;4217614;33;20396;-82
2021/05/30 02:30:44;;;;;;;61.60;42.22;;;;;;;;;;4218161;33;20102;-83
2021/05/30 02:33:15;;;;;;;53.35;33.47;;;;;;;;;;4222126;33;20075;-83
2021/05/30 02:35:45;;;;;;;54.55;33.45;;;;;;;;;;4220093;33;20110;-83
2021/05/30 02:38:17;;;;;;;56.53;32.70;;;;;;;;;;4220523;33;20277;-83
2021/05/30 02:40:47;;;;;;;53.30;33.65;;;;;;;;;;4221173;33;20093;-83
2021/05/30 02:43:18;;;;;;;47.15;33.60;;;;;;;;;;4211037;33;20071;-83
2021/05/30 02:45:50;;;;;;;54.15;34.78;;;;;;;;;;4207353;33;22181;-83
2021/05/30 02:48:21;;;;;;;61.47;42.33;;;;;;;;;;4218730;33;20667;-84
2021/05/30 02:50:59;;;;;;;68.32;42.28;;;;;;;;;;4221112;33;20073;-84
2021/05/30 02:53:31;;;;;;;58.30;38.28;;;;;;;;;;4220993;33;20620;-83
2021/05/30 02:56:02;;;;;;;61.53;40.75;;;;;;;;;;4216197;33;20123;-84
2021/05/30 02:58:31;;;;;;;54.13;39.88;;;;;;;;;;4225838;33;20126;-84
2021/05/30 03:01:02;;;;;;;60.55;40.33;;;;;;;;;;4217426;33;20126;-83
2021/05/30 03:03:36;;;;;;;;;;;;;;;;;;4220468;33;20138;-83
2021/05/30 03:06:07;;;;;;;53.33;34.17;;;;;;;;;;4220604;33;20025;-83
2021/05/30 03:08:38;;;;;;;32.35;18.92;;;;;;;;;;4219657;33;20067;-83
2021/05/30 03:11:20;;;;;;;31.30;19.40;;;;;;;;;;4250035;28;20090;-95
2021/05/30 03:13:55;;;;;;;41.40;22.73;;;;;;;;;;4236808;33;20081;-96
2021/05/30 03:16:31;;;;;;;38.97;24.70;;;;;;;;;;4229018;33;20134;-94
2021/05/30 03:19:15;;;;;;;38.90;24.40;;;;;;;;;;4236644;33;21674;-95
2021/05/30 03:21:49;;;;;;;35.17;25.58;;;;;;;;;;4236309;33;20124;-96
2021/05/30 03:24:30;;;;;;;43.60;28.67;;;;;;;;;;4234977;33;20058;-94
2021/05/30 03:27:04;;;;;;;49.88;34.90;;;;;;;;;;4236634;33;20062;-96
2021/05/30 03:29:35;;;;;;;48.28;37.42;;;;;;;;;;4239831;33;20066;-96
2021/05/30 03:32:18;;;;;;;42.65;31.87;;;;;;;;;;4240254;33;20059;-96
2021/05/30 03:35:02;;;;;;;47.80;29.02;;;;;;;;;;4237890;33;20055;-95
2021/05/30 03:37:58;;;;;;;49.97;32.83;;;;;;;;;;4239892;33;20076;-95
2021/05/30 03:40:39;;;;;;;40.58;28.30;;;;;;;;;;4231081;33;20578;-96
2021/05/30 03:43:19;;;;;;;57.08;37.88;;;;;;;;;;4236597;33;20406;-96
2021/05/30 03:45:53;;;;;;;54.97;40.88;;;;;;;;;;4238452;33;20128;-96
2021/05/30 03:48:44;;;;;;;52.40;37.33;;;;;;;;;;4237573;33;20076;-96
2021/05/30 03:51:26;;;;;;;52.97;38.30;;;;;;;;;;4234492;33;20066;-95
2021/05/30 03:54:02;;;;;;;58.05;41.67;;;;;;;;;;4226275;33;20098;-96
2021/05/30 03:56:44;;;;;;;57.30;41.72;;;;;;;;;;4236248;33;20101;-95
2021/05/30 03:59:23;;;;;;;;;;;;;;;;;;;;;
2021/05/30 04:01:55;;;;;;;54.85;36.88;;;;;;;;;;4231186;33;20102;-95
2021/05/30 04:04:46;;;;;;;55.58;43.10;;;;;;;;;;4225389;33;20039;-95
2021/05/30 04:07:30;;;;;;;64.65;41.67;;;;;;;;;;4230558;33;20444;-96
2021/05/30 04:11:04;;;;;;;52.97;42.03;;;;;;;;;;4238699;33;20073;-96
2021/05/30 04:13:53;;;;;;;63.85;49.20;;;;;;;;;;4228186;33;20084;-95
2021/05/30 04:16:34;;;;;;;68.93;51.85;;;;;;;;;;4245897;33;20423;-96
2021/05/30 04:19:05;;;;;;;62.97;43.10;;;;;;;;;;4241764;33;20046;-96
2021/05/30 04:21:37;;;;;;;61.20;43.72;;;;;;;;;;4244883;33;20122;-96
2021/05/30 04:24:20;;;;;;;57.90;43.50;;;;;;;;;;4230986;33;20085;-95
2021/05/30 04:26:56;;;;;;;60.15;43.85;;;;;;;;;;4231247;33;20050;-95
2021/05/30 04:29:30;;;;;;;71.75;50.47;;;;;;;;;;4243866;33;20109;-96
2021/05/30 04:32:17;;;;;;;67.32;49.75;;;;;;;;;;4245642;33;20727;-94
2021/05/30 04:34:49;;;;;;;55.60;42.83;;;;;;;;;;4233423;33;20062;-96
2021/05/30 04:37:33;;;;;;;55.23;41.30;;;;;;;;;;4233495;33;20062;-95
2021/05/30 04:40:17;;;;;;;64.50;51.78;;;;;;;;;;4226042;33;20110;-96
2021/05/30 04:43:09;;;;;;;64.90;54.78;;;;;;;;;;4258475;33;20125;-96
2021/05/30 04:45:40;;;;;;;80.47;58.03;;;;;;;;;;4236509;33;20460;-95
2021/05/30 04:48:16;;;;;;;71.53;56.67;;;;;;;;;;4233979;33;20555;-95
2021/05/30 04:51:05;;;;;;;68.55;57.50;;;;;;;;;;4237664;33;20665;-95
2021/05/30 04:53:38;;;;;;;71.68;57.80;;;;;;;;;;4242408;33;20062;-96
2021/05/30 04:56:10;;;;;;;75.35;56.08;;;;;;;;;;4241739;33;20058;-95
2021/05/30 04:58:41;;;;;;;74.53;53.22;;;;;;;;;;4232957;33;20046;-96
2021/05/30 05:01:10;;;;;;;69.15;56.13;;;;;;;;;;4242438;33;20124;-96
2021/05/30 05:03:51;;;;;;;55.95;45.45;;;;;;;;;;4227647;33;20085;-96
2021/05/30 05:06:20;;;;;;;60.03;43.30;;;;;;;;;;4248322;33;20062;-95
2021/05/30 05:08:55;;;;;;;53.95;37.22;;;;;;;;;;4235938;33;20080;-95
2021/05/30 05:11:31;;;;;;;49.50;34.30;;;;;;;;;;4237368;33;20069;-96
2021/05/30 05:14:06;;;;;;;58.17;40.17;;;;;;;;;;4243935;33;20102;-95
2021/05/30 05:16:41;;;;;;;54.90;37.00;;;;;;;;;;4233374;33;20089;-96
2021/05/30 05:19:16;;;;;;;42.33;26.35;;;;;;;;;;4245557;33;20050;-95
2021/05/30 05:22:15;;;;;;;30.20;22.30;;;;;;;;;;4227354;33;20055;-96
2021/05/30 05:25:04;;;;;;;53.97;37.22;;;;;;;;;;4234515;33;20113;-94
2021/05/30 05:27:33;;;;;;;43.67;27.58;;;;;;;;;;4237429;33;20096;-95
2021/05/30 05:30:16;;;;;;;43.55;28.15;;;;;;;;;;4225998;33;20453;-94
2021/05/30 05:33:08;;;;;;;49.65;27.40;;;;;;;;;;4229832;33;20686;-95
2021/05/30 05:35:42;;;;;;;46.63;26.98;;;;;;;;;;4237873;33;20098;-95
2021/05/30 05:38:17;;;;;;;47.90;30.35;;;;;;;;;;4233991;33;20429;-96
2021/05/30 05:40:58;;;;;;;42.40;24.35;;;;;;;;;;4234962;33;20066;-96
2021/05/30 05:43:39;;;;;;;39.33;25.02;;;;;;;;;;4240436;33;20114;-94
2021/05/30 05:46:11;;;;;;;46.78;25.92;;;;;;;;;;4239096;33;20051;-96
2021/05/30 05:48:44;;;;;;;49.97;28.45;;;;;;;;;;4235063;33;20058;-94
2021/05/30 05:51:20;;;;;;;39.15;27.00;;;;;;;;;;4230234;33;20556;-95
2021/05/30 05:54:12;;;;;;;28.80;19.20;;;;;;;;;;4235926;33;20066;-94
2021/05/30 05:56:48;;;;;;;30.27;18.73;;;;;;;;;;4233979;33;20055;-95
2021/05/30 05:59:48;;;;;;;35.30;18.37;;;;;;;;;;4240471;33;20092;-93
2021/05/30 06:02:28;;;;;;;41.58;26.40;;;;;;;;;;4244598;33;20493;-94
2021/05/30 06:05:03;;;;;;;42.00;27.60;;;;;;;;;;4223445;33;20081;-95
2021/05/30 06:08:09;;;;;;;48.78;30.77;;;;;;;;;;4243133;33;20175;-96
2021/05/30 06:10:44;;;;;;;40.65;28.05;;;;;;;;;;4237966;33;20063;-95
2021/05/30 06:13:19;;;;;;;51.63;32.75;;;;;;;;;;4234926;33;20051;-96
2021/05/30 06:16:06;;;;;;;48.58;31.98;;;;;;;;;;4231577;33;20077;-96
2021/05/30 06:18:47;;;;;;;49.63;33.67;;;;;;;;;;4232946;33;20118;-95
2021/05/30 06:21:22;;;;;;;45.12;31.33;;;;;;;;;;4230571;33;20059;-95
2021/05/30 06:24:20;;;;;;;44.88;27.87;;;;;;;;;;4243245;33;20055;-96
2021/05/30 06:26:48;;;;;;;44.10;32.03;;;;;;;;;;4234221;33;20066;-96
2021/05/30 06:29:23;;;;;;;39.17;29.48;;;;;;;;;;4242700;33;20123;-95
2021/05/30 06:32:30;;;;;;;36.88;22.00;;;;;;;;;;4219750;33;20873;-95
2021/05/30 06:35:07;;;;;;;38.97;23.67;;;;;;;;;;4232032;33;20097;-94
2021/05/30 06:38:00;;;;;;;31.02;21.40;;;;;;;;;;4225805;33;20059;-95
2021/05/30 06:40:33;;;;;;;33.42;22.00;;;;;;;;;;4223991;33;20062;-95
2021/05/30 06:43:31;;;;;;;31.45;21.80;;;;;;;;;;4228726;33;20138;-96
2021/05/30 06:46:06;;;;;;;32.40;23.05;;;;;;;;;;4231437;33;20076;-95
2021/05/30 06:48:57;;;;;;;34.08;21.17;;;;;;;;;;4223655;33;20093;-96
2021/05/30 06:51:52;;;;;;;30.65;21.80;;;;;;;;;;4230167;33;20065;-96
2021/05/30 06:54:40;;;;;;;25.17;20.55;;;;;;;;;;4229799;33;20058;-95
2021/05/30 06:57:46;;;;;;;24.20;19.05;;;;;;;;;;4209781;33;20054;-96
2021/05/30 07:00:22;;;;;;;23.07;18.53;;;;;;;;;;4233471;33;20117;-96
2021/05/30 07:03:59;;;;;;;;;;;;;;;;;;;;;
2021/05/30 07:07:43;;;;;;;24.67;17.65;;;;;;;;;;4244925;33;19990;-96
2021/05/30 07:11:21;;;;;;;27.65;17.73;;;;;;;;;;4179851;34;20063;-96
2021/05/30 07:15:01;;;;;;;23.48;18.37;;;;;;;;;;4196697;34;20081;-96
2021/05/30 07:18:03;;;;;;;26.37;18.12;;;;;;;;;;4167256;34;20122;-96
2021/05/30 07:37:00;;;;;;;26.12;16.23;;;;;;;;;;4142733;34;20078;-96
2021/05/30 07:40:45;;;;;;;23.75;14.23;;;;;;;;;;4174787;34;20043;-96
2021/05/30 07:44:41;;;;;;;;;;;;;;;;;;;;;
2021/05/30 07:48:22;;;;;;;28.52;14.73;;;;;;;;;;4188468;34;20087;-95
2021/05/30 07:55:33;;;;;;;;;;;;;;;;;;;;;
2021/05/30 07:59:15;;;;;;;38.05;26.08;;;;;;;;;;4160579;34;20693;-96
2021/05/30 08:01:49;;;;;;;26.60;20.93;;;;;;;;;;4210450;34;20059;-96
2021/05/30 08:04:24;;;;;;;35.25;22.95;;;;;;;;;;4193578;34;20162;-96
2021/05/30 08:07:14;;;;;;;24.40;15.52;;;;;;;;;;4203164;34;20114;-96
2021/05/30 08:09:58;;;;;;;20.47;13.70;;;;;;;;;;4183256;34;20139;-96
2021/05/30 08:12:30;;;;;;;20.20;13.30;;;;;;;;;;4192541;34;20101;-96
2021/05/30 08:15:05;;;;;;;19.02;15.40;;;;;;;;;;4201249;34;20067;-96
2021/05/30 08:17:39;;;;;;;23.98;15.20;;;;;;;;;;4195647;34;20066;-96
2021/05/30 08:20:18;;;;;;;21.98;14.27;;;;;;;;;;4199598;34;20062;-96
2021/05/30 08:22:56;;;;;;;21.62;14.00;;;;;;;;;;4221227;33;20050;-96
2021/05/30 08:25:38;;;;;;;24.15;14.60;;;;;;;;;;4245609;33;20058;-96
2021/05/30 08:31:27;;;;;;;23.17;16.98;;;;;;;;;;4239269;33;20090;-96
2021/05/30 08:34:37;;;;;;;26.70;14.57;;;;;;;;;;4236690;33;20038;-96
2021/05/30 08:37:22;;;;;;;21.55;14.82;;;;;;;;;;4248164;33;20085;-96
2021/05/30 08:40:14;;;;;;;29.02;15.60;;;;;;;;;;4235969;33;20117;-96
2021/05/30 08:42:56;;;;;;;18.50;15.20;;;;;;;;;;4224374;33;20066;-96
2021/05/30 08:45:34;;;;;;;18.12;16.15;;;;;;;;;;4231586;33;20483;-96
2021/05/30 08:48:16;;;;;;;27.33;17.55;;;;;;;;;;4233313;33;20093;-96
2021/05/30 08:51:01;;;;;;;;;;;;;;;;;;4230601;33;20110;-96
2021/05/30 08:53:38;;;;;;;21.23;19.00;;;;;;;;;;4232496;33;19968;-96
2021/05/30 08:56:12;;;;;;;22.05;19.67;;;;;;;;;;4233293;33;20058;-96
2021/05/30 08:58:49;;;;;;;32.25;23.95;;;;;;;;;;4234051;33;20086;-96
2021/05/30 09:01:34;;;;;;;25.60;22.87;;;;;;;;;;4219987;33;20081;-96
2021/05/30 09:04:43;;;;;;;35.88;26.62;;;;;;;;;;4223004;33;20094;-96
2021/05/30 09:08:07;;;;;;;;;;;;;;;;;;;;;
2021/05/30 09:10:57;;;;;;;33.67;26.02;;;;;;;;;;4243108;33;20081;-96
2021/05/30 09:18:15;;;;;;;44.25;27.52;;;;;;;;;;4243539;33;20082;-96
2021/05/30 09:21:31;;;;;;;;;;;;;;;;;;;;;
2021/05/30 09:24:32;;;;;;;46.67;26.48;;;;;;;;;;4246872;33;20066;-96
2021/05/30 09:27:27;;;;;;;20.25;14.20;;;;;;;;;;4230537;33;20700;-96
2021/05/30 09:30:29;;;;;;;14.95;4.95;;;;;;;;;;4234771;33;20106;-96
2021/05/30 09:33:37;;;;;;;13.73;4.57;;;;;;;;;;4232747;33;20054;-96
2021/05/30 09:36:45;;;;;;;11.85;3.83;;;;;;;;;;4239605;33;20090;-96
2021/05/30 09:39:50;;;;;;;13.30;3.87;;;;;;;;;;4252651;33;20156;-96
2021/05/30 09:43:14;;;;;;;13.95;5.15;;;;;;;;;;4243766;33;20054;-96
2021/05/30 09:46:36;;;;;;;15.52;4.20;;;;;;;;;;4233022;33;20046;-96
2021/05/30 09:49:20;;;;;;;16.17;4.55;;;;;;;;;;4239990;33;20124;-96
2021/05/30 09:52:13;;;;;;;25.58;5.95;;;;;;;;;;4227984;33;20162;-96
2021/05/30 09:55:44;;;;;;;20.70;5.43;;;;;;;;;;4234910;33;20046;-96
2021/05/30 09:58:39;;;;;;;14.07;5.22;;;;;;;;;;4237469;33;20089;-96
2021/05/30 10:01:46;;;;;;;15.43;5.50;;;;;;;;;;4224303;33;20859;-96
2021/05/30 10:04:34;;;;;;;18.23;5.60;;;;;;;;;;4222398;33;20437;-96
2021/05/30 10:07:26;;;;;;;16.23;5.40;;;;;;;;;;4222231;33;20607;-96
2021/05/30 10:13:34;;;;;;;15.30;4.95;;;;;;;;;;4229050;33;20924;-96
2021/05/30 10:16:33;;;;;;;8.93;4.15;;;;;;;;;;4231669;33;20102;-96
2021/05/30 10:19:25;;;;;;;15.43;4.55;;;;;;;;;;4230786;33;20077;-96
2021/05/30 10:22:33;;;;;;;9.75;3.95;;;;;;;;;;4230338;33;20641;-96
2021/05/30 10:25:44;;;;;;;12.32;3.75;;;;;;;;;;4246615;33;20058;-96
2021/05/30 10:28:54;;;;;;;10.32;3.62;;;;;;;;;;4238108;33;20046;-95
2021/05/30 10:32:17;;;;;;;8.98;3.40;;;;;;;;;;4231645;33;20078;-96
2021/05/30 10:35:06;;;;;;;13.82;3.72;;;;;;;;;;4229287;33;20042;-96
2021/05/30 10:37:45;;;;;;;10.05;3.53;;;;;;;;;;4247487;33;21078;-96
2021/05/30 10:40:23;;;;;;;9.43;3.72;;;;;;;;;;4237547;33;20106;-96
2021/05/30 10:43:01;;;;;;;14.63;3.80;;;;;;;;;;4228487;33;20051;-96
2021/05/30 10:45:38;;;;;;;12.30;4.00;;;;;;;;;;4218758;33;20061;-96
2021/05/30 10:48:30;;;;;;;21.58;4.03;;;;;;;;;;4234400;33;20169;-96
2021/05/30 10:54:10;;;;;;;15.73;3.70;;;;;;;;;;4235283;33;20066;-96
2021/05/30 10:56:43;;;;;;;11.98;3.42;;;;;;;;;;4230490;33;20066;-96
2021/05/30 10:59:15;;;;;;;10.60;3.80;;;;;;;;;;4226647;33;20074;-96
2021/05/30 11:01:47;;;;;;;10.75;3.70;;;;;;;;;;4234342;33;20041;-95
2021/05/30 11:04:38;;;;;;;14.87;4.28;;;;;;;;;;4224232;33;20062;-96
2021/05/30 11:07:27;;;;;;;8.47;3.50;;;;;;;;;;4227138;33;20117;-96
2021/05/30 11:10:25;;;;;;;13.88;3.80;;;;;;;;;;4250961;33;20460;-96
2021/05/30 11:13:15;;;;;;;10.98;3.67;;;;;;;;;;4240302;33;20442;-96
2021/05/30 11:15:47;;;;;;;11.90;3.65;;;;;;;;;;4226126;33;20048;-96
2021/05/30 11:18:35;;;;;;;9.73;3.35;;;;;;;;;;4241101;33;20050;-96
2021/05/30 11:21:22;;;;;;;9.63;3.05;;;;;;;;;;4236125;33;20062;-96
2021/05/30 11:24:00;;;;;;;14.35;3.90;;;;;;;;;;4227929;33;20078;-96
2021/05/30 11:26:34;;;;;;;10.93;3.60;;;;;;;;;;4225296;33;20055;-96
2021/05/30 11:29:07;;;;;;;;;;;;;;;;;;4252526;33;20076;-96
2021/05/30 11:31:44;;;;;;;11.52;3.90;;;;;;;;;;4232354;33;20682;-96
2021/05/30 11:34:15;;;;;;;11.63;3.58;;;;;;;;;;4248692;33;20073;-96
2021/05/30 11:37:06;;;;;;;12.85;3.58;;;;;;;;;;4241282;33;20384;-96
2021/05/30 11:39:41;;;;;;;7.97;3.30;;;;;;;;;;4236561;33;20054;-96
2021/05/30 11:42:28;;;;;;;10.82;3.70;;;;;;;;;;4238326;33;20055;-96
2021/05/30 11:45:11;;;;;;;9.70;3.05;;;;;;;;;;4237294;33;20076;-96
2021/05/30 11:48:01;;;;;;;21.83;4.68;;;;;;;;;;4236634;33;20069;-96
2021/05/30 11:50:34;;;;;;;13.77;3.75;;;;;;;;;;4248093;33;20096;-96
2021/05/30 11:53:34;;;;;;;46.80;6.22;;;;;;;;;;4241507;33;20110;-96
2021/05/30 11:56:10;;;;;;;20.85;4.10;;;;;;;;;;4248085;33;20065;-96
2021/05/30 11:58:50;;;;;;;11.52;3.20;;;;;;;;;;4237050;33;20484;-96
2021/05/30 12:01:21;;;;;;;10.10;2.90;;;;;;;;;;4239752;33;20071;-96
2021/05/30 12:03:53;;;;;;;16.60;4.05;;;;;;;;;;4230528;33;20111;-96
2021/05/30 12:06:46;;;;;;;8.60;3.05;;;;;;;;;;4248944;33;20043;-96
2021/05/30 12:09:48;;;;;;;9.25;3.20;;;;;;;;;;4255845;33;20068;-96
2021/05/30 12:12:39;;;;;;;11.25;3.62;;;;;;;;;;4238157;33;20100;-96
2021/05/30 12:15:32;;;;;;;8.32;3.42;;;;;;;;;;4230178;33;20121;-96
2021/05/30 12:18:32;;;;;;;45.53;6.00;;;;;;;;;;4249404;33;20050;-96
2021/05/30 12:21:47;;;;;;;10.48;3.37;;;;;;;;;;4223176;33;20070;-96
2021/05/30 12:24:43;;;;;;;8.98;3.15;;;;;;;;;;4218478;33;20058;-96
2021/05/30 12:27:32;;;;;;;17.87;3.58;;;;;;;;;;4208312;33;20102;-96
2021/05/30 12:30:32;;;;;;;11.45;3.22;;;;;;;;;;4230919;33;20110;-96
2021/05/30 12:33:30;;;;;;;8.73;3.25;;;;;;;;;;4227148;33;20066;-96
2021/05/30 12:36:08;;;;;;;75.07;7.65;;;;;;;;;;4224766;33;20047;-96
2021/05/30 12:39:22;;;;;;;8.88;2.80;;;;;;;;;;4224852;34;20091;-96
2021/05/30 12:42:39;;;;;;;12.02;3.70;;;;;;;;;;4215012;34;20059;-96
2021/05/30 12:45:34;;;;;;;7.95;3.12;;;;;;;;;;4224543;33;20454;-96
2021/05/30 12:48:51;;;;;;;7.93;2.80;;;;;;;;;;4214967;33;20121;-96
2021/05/30 12:51:58;;;;;;;11.02;3.78;;;;;;;;;;4206074;33;20091;-96
2021/05/30 12:55:05;;;;;;;9.60;3.22;;;;;;;;;;4249538;33;20047;-96
2021/05/30 12:57:45;;;;;;;10.82;3.67;;;;;;;;;;4226899;33;20106;-96
2021/05/30 13:00:40;;;;;;;66.43;6.95;;;;;;;;;;4233562;33;20039;-96
2021/05/30 13:03:24;;;;;;;12.85;3.80;;;;;;;;;;4217621;34;20059;-95
2021/05/30 13:06:09;;;;;;;12.15;3.50;;;;;;;;;;4230406;33;20073;-96
2021/05/30 13:09:09;;;;;;;18.33;4.40;;;;;;;;;;4223940;34;20055;-94
2021/05/30 13:12:00;;;;;;;16.85;4.25;;;;;;;;;;4237759;33;20081;-96
2021/05/30 13:15:13;;;;;;;8.70;3.25;;;;;;;;;;4232939;33;20112;-96
2021/05/30 13:17:57;;;;;;;42.97;5.65;;;;;;;;;;4246699;33;20063;-96
2021/05/30 13:23:46;;;;;;;10.55;3.58;;;;;;;;;;4231789;33;20106;-96
2021/05/30 13:26:56;;;;;;;8.93;3.33;;;;;;;;;;4237457;33;20050;-96
2021/05/30 13:29:44;;;;;;;;;;;;;;;;;;;;;
2021/05/30 13:32:19;;;;;;;15.15;3.62;;;;;;;;;;4235009;33;20058;-96
2021/05/30 13:34:56;;;;;;;8.00;3.17;;;;;;;;;;4221944;34;20073;-96
2021/05/30 13:37:32;;;;;;;10.18;3.50;;;;;;;;;;4242081;33;20102;-96
2021/05/30 13:40:05;;;;;;;;;;;;;;;;;;4240334;33;20051;-96
2021/05/30 13:42:34;;;;;;;58.17;6.75;;;;;;;;;;4231572;33;20420;-96
2021/05/30 13:45:17;;;;;;;10.38;3.35;;;;;;;;;;4225157;33;20058;-95
2021/05/30 13:47:50;;;;;;;;;;;;;;;;;;4235629;33;20058;-96
2021/05/30 13:50:24;;;;;;;16.08;3.75;;;;;;;;;;4232518;33;19942;-96
2021/05/30 13:52:58;;;;;;;8.88;3.50;;;;;;;;;;4220057;33;20540;-96
2021/05/30 13:55:35;;;;;;;54.85;7.62;;;;;;;;;;4240686;33;20074;-96
2021/05/30 13:58:07;;;;;;;8.25;3.62;;;;;;;;;;4229733;33;20085;-96
2021/05/30 14:00:38;;;;;;;8.77;3.60;;;;;;;;;;4249244;33;20078;-96
2021/05/30 14:03:14;;;;;;;6.03;3.08;;;;;;;;;;4228094;33;20066;-96
2021/05/30 14:05:52;;;;;;;11.73;3.45;;;;;;;;;;4233033;33;20556;-96
2021/05/30 14:08:25;;;;;;;9.07;3.20;;;;;;;;;;4228695;33;20084;-96
2021/05/30 14:11:10;;;;;;;12.00;3.72;;;;;;;;;;4242264;33;20068;-96
2021/05/30 14:14:06;;;;;;;14.73;3.53;;;;;;;;;;4238309;33;20141;-95
2021/05/30 14:16:48;;;;;;;8.40;3.10;;;;;;;;;;4233141;33;20054;-96
2021/05/30 14:19:32;;;;;;;10.85;3.28;;;;;;;;;;4227323;33;20051;-96
2021/05/30 14:22:06;;;;;;;8.13;3.35;;;;;;;;;;4241614;33;20106;-96
2021/05/30 14:24:53;;;;;;;9.00;3.17;;;;;;;;;;4248093;33;20070;-96
2021/05/30 14:27:26;;;;;;;6.22;2.80;;;;;;;;;;4231980;33;20062;-96
2021/05/30 14:29:59;;;;;;;10.20;2.95;;;;;;;;;;4238510;33;20094;-96
2021/05/30 14:32:44;;;;;;;9.85;3.40;;;;;;;;;;4233073;33;20059;-96
2021/05/30 14:35:18;;;;;;;8.90;3.50;;;;;;;;;;4218963;34;20070;-96
2021/05/30 14:38:01;;;;;;;8.80;2.97;;;;;;;;;;4229683;34;20843;-96
2021/05/30 14:40:51;;;;;;;8.60;3.22;;;;;;;;;;4235270;33;20074;-96
2021/05/30 14:43:27;;;;;;;7.25;2.40;;;;;;;;;;4229892;34;20051;-96
2021/05/30 14:46:30;;;;;;;9.20;2.95;;;;;;;;;;4228971;33;20170;-95
2021/05/30 14:49:06;;;;;;;6.60;2.25;;;;;;;;;;4242987;33;20039;-96
2021/05/30 14:51:36;;;;;;;6.03;2.37;;;;;;;;;;4237998;33;20094;-96
2021/05/30 14:54:11;;;;;;;6.55;2.50;;;;;;;;;;4231247;33;20448;-96
2021/05/30 14:56:43;;;;;;;7.65;2.17;;;;;;;;;;4240105;33;20054;-96
2021/05/30 14:59:17;;;;;;;6.05;2.72;;;;;;;;;;4245897;33;20118;-96
2021/05/30 15:01:56;;;;;;;7.30;2.40;;;;;;;;;;4232858;33;20406;-96
2021/05/30 15:04:39;;;;;;;7.97;2.55;;;;;;;;;;4233615;33;20094;-96
2021/05/30 15:07:19;;;;;;;7.80;2.25;;;;;;;;;;4228685;33;20047;-96
2021/05/30 15:09:47;;;;;;;5.18;2.28;;;;;;;;;;4226370;33;20452;-96
2021/05/30 15:12:23;;;;;;;5.78;1.98;;;;;;;;;;4229351;33;20090;-96
2021/05/30 15:14:57;;;;;;;9.85;2.50;;;;;;;;;;4228119;33;20142;-96
2021/05/30 15:17:34;;;;;;;10.10;2.45;;;;;;;;;;4238072;33;20059;-96
2021/05/30 15:23:16;;;;;;;8.32;2.67;;;;;;;;;;4234528;33;20093;-95
2021/05/30 15:25:51;;;;;;;7.45;2.83;;;;;;;;;;4233573;33;20099;-95
2021/05/30 15:28:31;;;;;;;6.60;2.40;;;;;;;;;;4230304;33;20054;-96
2021/05/30 15:31:13;;;;;;;8.25;2.60;;;;;;;;;;4220522;34;20054;-95
2021/05/30 15:34:06;;;;;;;10.13;3.05;;;;;;;;;;4235221;33;20850;-96
2021/05/30 15:36:36;;;;;;;9.15;2.90;;;;;;;;;;4226614;33;20747;-95
2021/05/30 15:39:43;;;;;;;10.82;3.00;;;;;;;;;;4228197;33;20463;-95
2021/05/30 15:42:26;;;;;;;56.42;5.62;;;;;;;;;;4245326;33;20103;-96
2021/05/30 15:45:01;;;;;;;9.38;3.00;;;;;;;;;;4241584;33;20054;-96
2021/05/30 15:47:36;;;;;;;10.57;3.33;;;;;;;;;;4232192;33;20047;-96
2021/05/30 15:50:12;;;;;;;9.90;2.77;;;;;;;;;;4230494;33;20532;-96
2021/05/30 15:53:02;;;;;;;7.95;2.55;;;;;;;;;;4231838;33;20047;-95
2021/05/30 15:55:39;;;;;;;9.18;2.70;;;;;;;;;;4231050;34;20096;-96
2021/05/30 15:58:22;;;;;;;8.13;2.58;;;;;;;;;;4228400;33;20078;-95
2021/05/30 16:00:56;;;;;;;10.70;3.33;;;;;;;;;;4241019;33;20089;-95
2021/05/30 16:03:34;;;;;;;32.78;4.95;;;;;;;;;;4236749;33;20077;-96
2021/05/30 16:06:05;;;;;;;13.47;3.77;;;;;;;;;;4231279;33;20081;-95
2021/05/30 16:09:04;;;;;;;13.93;3.40;;;;;;;;;;4227094;33;20680;-96
2021/05/30 16:11:37;;;;;;;11.15;3.08;;;;;;;;;;4233161;33;20120;-96
2021/05/30 16:14:07;;;;;;;14.15;3.58;;;;;;;;;;4227153;33;20054;-96
2021/05/30 16:16:49;;;;;;;18.42;3.85;;;;;;;;;;4227303;33;20050;-95
2021/05/30 16:19:35;;;;;;;13.60;4.20;;;;;;;;;;4219411;33;20066;-95
2021/05/30 16:22:37;;;;;;;13.23;4.00;;;;;;;;;;4223948;33;20106;-96
2021/05/30 16:25:16;;;;;;;14.80;3.65;;;;;;;;;;4234324;33;20077;-96
2021/05/30 16:28:30;;;;;;;13.52;4.95;;;;;;;;;;4236942;33;20062;-96
2021/05/30 16:31:46;;;;;;;13.07;4.32;;;;;;;;;;4221178;33;20073;-96
2021/05/30 16:34:31;;;;;;;26.00;7.47;;;;;;;;;;4228730;33;20342;-96
2021/05/30 17:02:42;;;;;;;11.93;3.30;;;;;;;;;;4203382;34;20079;-87
2021/05/30 17:05:14;;;;;;;13.55;3.60;;;;;;;;;;4220957;33;20161;-84
2021/05/30 17:07:46;;;;;;;15.27;3.78;;;;;;;;;;4221480;33;20458;-85
2021/05/30 17:10:15;;;;;;;11.43;2.55;;;;;;;;;;4195554;34;20070;-86
2021/05/30 17:12:46;;;;;;;14.48;3.00;;;;;;;;;;4206422;33;20086;-86
2021/05/30 17:15:20;;;;;;;14.30;2.80;;;;;;;;;;4207949;33;20185;-84